createdAt,value
2023-04-21T00:00:28.746Z,7.42
2023-04-21T00:01:28.736Z,7.44
2023-04-21T00:02:28.762Z,7.44
2023-04-21T00:03:28.947Z,7.44
2023-04-21T00:04:29.179Z,7.47
2023-04-21T00:05:28.772Z,7.47
2023-04-21T00:06:28.678Z,7.50
2023-04-21T00:07:28.648Z,7.49
2023-04-21T00:08:28.649Z,7.49
2023-04-21T00:09:28.623Z,7.49
2023-04-21T00:10:28.621Z,7.49
2023-04-21T00:11:28.651Z,7.49
2023-04-21T00:12:28.582Z,7.45
2023-04-21T00:13:28.586Z,7.42
2023-04-21T00:14:28.594Z,7.40
2023-04-21T00:15:28.550Z,7.40
2023-04-21T00:16:28.595Z,7.35
2023-04-21T00:17:28.584Z,7.35
2023-04-21T00:18:28.522Z,7.34
2023-04-21T00:19:28.523Z,7.29
2023-04-21T00:20:28.488Z,7.27
2023-04-21T00:21:28.491Z,7.29
2023-04-21T00:22:28.486Z,7.27
2023-04-21T00:23:28.455Z,7.24
2023-04-21T00:24:28.462Z,7.24
2023-04-21T00:25:28.443Z,7.23
2023-04-21T00:26:28.414Z,7.19
2023-04-21T00:27:28.394Z,7.19
2023-04-21T00:28:28.400Z,7.17
2023-04-21T00:29:28.461Z,7.13
2023-04-21T00:30:28.381Z,7.13
2023-04-21T00:31:28.410Z,7.09
2023-04-21T00:32:28.359Z,7.08
2023-04-21T00:33:28.335Z,7.05
2023-04-21T00:34:28.323Z,7.02
2023-04-21T00:35:28.325Z,6.98
2023-04-21T00:36:28.282Z,6.94
2023-04-21T00:37:28.284Z,6.86
2023-04-21T00:38:28.273Z,6.89
2023-04-21T00:39:28.269Z,6.90
2023-04-21T00:40:28.272Z,6.89
2023-04-21T00:41:28.248Z,6.89
2023-04-21T00:42:28.239Z,6.86
2023-04-21T00:43:28.223Z,6.84
2023-04-21T00:44:28.184Z,6.84
2023-04-21T00:45:28.209Z,6.83
2023-04-21T00:46:28.201Z,6.83
2023-04-21T00:47:28.191Z,6.80
2023-04-21T00:48:28.147Z,6.80
2023-04-21T00:49:28.143Z,6.80
2023-04-21T00:50:28.154Z,6.80
2023-04-21T00:51:28.108Z,6.76
2023-04-21T00:52:28.099Z,6.71
2023-04-21T00:53:28.084Z,6.73
2023-04-21T00:54:28.068Z,6.77
2023-04-21T00:55:28.076Z,6.77
2023-04-21T00:56:28.048Z,6.77
2023-04-21T00:57:28.027Z,6.77
2023-04-21T00:58:28.030Z,6.77
2023-04-21T00:59:28.011Z,6.71
2023-04-21T01:00:28.011Z,6.69
2023-04-21T01:01:28.030Z,6.68
2023-04-21T01:02:28.065Z,6.65
2023-04-21T01:03:28.151Z,6.63
2023-04-21T01:04:27.920Z,6.61
2023-04-21T01:05:27.954Z,6.59
2023-04-21T01:06:27.920Z,6.59
2023-04-21T01:07:27.915Z,6.61
2023-04-21T01:08:27.901Z,6.59
2023-04-21T01:09:27.899Z,6.59
2023-04-21T01:10:27.867Z,6.58
2023-04-21T01:11:27.889Z,6.58
2023-04-21T01:12:27.851Z,6.56
2023-04-21T01:13:27.842Z,6.53
2023-04-21T01:14:27.834Z,6.51
2023-04-21T01:15:27.832Z,6.48
2023-04-21T01:16:27.819Z,6.48
2023-04-21T01:17:27.815Z,6.46
2023-04-21T01:18:27.749Z,6.44
2023-04-21T01:19:27.756Z,6.41
2023-04-21T01:20:27.748Z,6.44
2023-04-21T01:21:27.748Z,6.41
2023-04-21T01:22:27.717Z,6.40
2023-04-21T01:23:27.706Z,6.35
2023-04-21T01:24:27.686Z,6.35
2023-04-21T01:25:27.690Z,6.33
2023-04-21T01:26:27.676Z,6.35
2023-04-21T01:27:27.664Z,6.30
2023-04-21T01:28:27.622Z,6.36
2023-04-21T01:29:27.626Z,6.35
2023-04-21T01:30:27.637Z,6.36
2023-04-21T01:31:27.681Z,6.33
2023-04-21T01:32:27.641Z,6.32
2023-04-21T01:33:27.587Z,6.32
2023-04-21T01:34:27.564Z,6.29
2023-04-21T01:35:27.557Z,6.25
2023-04-21T01:36:27.543Z,6.28
2023-04-21T01:37:27.554Z,6.29
2023-04-21T01:38:27.537Z,6.29
2023-04-21T01:39:27.510Z,6.30
2023-04-21T01:40:27.505Z,6.32
2023-04-21T01:41:27.498Z,6.33
2023-04-21T01:42:27.481Z,6.32
2023-04-21T01:43:27.454Z,6.30
2023-04-21T01:44:27.452Z,6.30
2023-04-21T01:45:27.442Z,6.26
2023-04-21T01:46:27.469Z,6.22
2023-04-21T01:47:27.713Z,6.22
2023-04-21T01:48:27.395Z,6.21
2023-04-21T01:49:27.396Z,6.22
2023-04-21T01:50:27.380Z,6.16
2023-04-21T01:51:27.353Z,6.16
2023-04-21T01:52:27.350Z,6.13
2023-04-21T01:53:27.349Z,6.11
2023-04-21T01:54:27.310Z,6.09
2023-04-21T01:55:27.318Z,6.10
2023-04-21T01:56:27.333Z,6.07
2023-04-21T01:57:27.289Z,6.06
2023-04-21T01:58:27.288Z,6.09
2023-04-21T01:59:27.257Z,6.07
2023-04-21T02:00:27.252Z,6.09
2023-04-21T02:01:27.320Z,6.06
2023-04-21T02:02:27.352Z,6.06
2023-04-21T02:03:27.454Z,6.04
2023-04-21T02:04:27.290Z,6.03
2023-04-21T02:05:27.186Z,6.01
2023-04-21T02:06:27.168Z,6.01
2023-04-21T02:07:27.173Z,6.00
2023-04-21T02:08:27.164Z,5.98
2023-04-21T02:09:27.144Z,5.95
2023-04-21T02:10:27.129Z,5.93
2023-04-21T02:11:27.112Z,5.89
2023-04-21T02:12:27.093Z,5.91
2023-04-21T02:13:27.093Z,5.88
2023-04-21T02:14:27.057Z,5.83
2023-04-21T02:15:27.105Z,5.78
2023-04-21T02:16:27.058Z,5.78
2023-04-21T02:17:27.027Z,5.82
2023-04-21T02:18:27.022Z,5.81
2023-04-21T02:19:27.004Z,5.77
2023-04-21T02:20:27.005Z,5.75
2023-04-21T02:21:26.987Z,5.71
2023-04-21T02:22:26.949Z,5.71
2023-04-21T02:23:26.961Z,5.71
2023-04-21T02:24:26.930Z,5.68
2023-04-21T02:25:26.931Z,5.67
2023-04-21T02:26:26.905Z,5.66
2023-04-21T02:27:26.899Z,5.60
2023-04-21T02:28:26.881Z,5.63
2023-04-21T02:29:26.871Z,5.63
2023-04-21T02:30:26.873Z,5.63
2023-04-21T02:31:27.025Z,5.63
2023-04-21T02:32:27.049Z,5.59
2023-04-21T02:33:26.872Z,5.57
2023-04-21T02:34:26.822Z,5.56
2023-04-21T02:35:26.798Z,5.52
2023-04-21T02:36:26.791Z,5.53
2023-04-21T02:37:26.779Z,5.49
2023-04-21T02:38:26.771Z,5.50
2023-04-21T02:39:26.759Z,5.49
2023-04-21T02:40:26.725Z,5.45
2023-04-21T02:41:26.728Z,5.45
2023-04-21T02:42:26.706Z,5.43
2023-04-21T02:43:26.698Z,5.41
2023-04-21T02:44:26.701Z,5.40
2023-04-21T02:45:26.684Z,5.35
2023-04-21T02:46:26.693Z,5.35
2023-04-21T02:47:26.793Z,5.35
2023-04-21T02:48:26.626Z,5.32
2023-04-21T02:49:26.623Z,5.31
2023-04-21T02:50:26.583Z,5.30
2023-04-21T02:51:26.583Z,5.30
2023-04-21T02:52:26.582Z,5.30
2023-04-21T02:53:26.561Z,5.30
2023-04-21T02:54:26.546Z,5.27
2023-04-21T02:55:26.541Z,5.23
2023-04-21T02:56:26.518Z,5.25
2023-04-21T02:57:26.522Z,5.23
2023-04-21T02:58:26.518Z,5.22
2023-04-21T02:59:26.499Z,5.22
2023-04-21T03:00:26.527Z,5.20
2023-04-21T03:01:26.628Z,5.19
2023-04-21T03:02:26.618Z,5.17
2023-04-21T03:03:26.545Z,5.17
2023-04-21T03:04:26.664Z,5.14
2023-04-21T03:05:26.407Z,5.14
2023-04-21T03:06:26.390Z,5.13
2023-04-21T03:07:26.391Z,5.10
2023-04-21T03:08:26.353Z,5.10
2023-04-21T03:09:26.366Z,5.09
2023-04-21T03:10:26.332Z,5.05
2023-04-21T03:11:26.364Z,5.04
2023-04-21T03:12:26.311Z,5.02
2023-04-21T03:13:26.296Z,5.04
2023-04-21T03:14:26.313Z,5.01
2023-04-21T03:15:26.292Z,4.99
2023-04-21T03:16:26.311Z,4.99
2023-04-21T03:17:26.261Z,4.99
2023-04-21T03:18:26.312Z,5.01
2023-04-21T03:19:26.233Z,5.02
2023-04-21T03:20:26.228Z,5.01
2023-04-21T03:21:26.229Z,4.99
2023-04-21T03:22:26.175Z,5.02
2023-04-21T03:23:26.171Z,4.99
2023-04-21T03:24:26.169Z,4.98
2023-04-21T03:25:26.153Z,4.94
2023-04-21T03:26:26.179Z,4.96
2023-04-21T03:27:26.115Z,4.98
2023-04-21T03:28:26.111Z,4.98
2023-04-21T03:29:26.097Z,4.99
2023-04-21T03:30:26.090Z,4.98
2023-04-21T03:31:26.133Z,4.99
2023-04-21T03:32:26.110Z,4.99
2023-04-21T03:33:26.115Z,4.99
2023-04-21T03:34:26.035Z,4.98
2023-04-21T03:35:26.055Z,4.98
2023-04-21T03:36:26.029Z,5.01
2023-04-21T03:37:26.032Z,4.99
2023-04-21T03:38:25.994Z,4.99
2023-04-21T03:39:26.277Z,5.02
2023-04-21T03:40:25.953Z,5.01
2023-04-21T03:41:25.974Z,5.02
2023-04-21T03:42:25.926Z,5.01
2023-04-21T03:43:25.920Z,5.04
2023-04-21T03:44:25.913Z,5.05
2023-04-21T03:45:25.914Z,5.02
2023-04-21T03:46:25.934Z,5.04
2023-04-21T03:47:25.923Z,5.04
2023-04-21T03:48:25.850Z,5.05
2023-04-21T03:49:25.835Z,5.01
2023-04-21T04:03:03.097Z,4.86
2023-04-21T04:04:03.185Z,4.86
2023-04-21T04:05:03.027Z,4.86
2023-04-21T04:06:02.936Z,4.86
2023-04-21T04:07:02.961Z,4.83
2023-04-21T04:08:02.908Z,4.80
2023-04-21T04:09:02.875Z,4.80
2023-04-21T04:10:02.891Z,4.80
2023-04-21T04:11:02.857Z,4.77
2023-04-21T04:12:02.882Z,4.77
2023-04-21T04:13:02.840Z,4.75
2023-04-21T04:14:02.844Z,4.75
2023-04-21T04:15:02.846Z,4.73
2023-04-21T04:16:02.857Z,4.70
2023-04-21T04:17:02.802Z,4.70
2023-04-21T04:18:02.831Z,4.69
2023-04-21T04:19:02.787Z,4.64
2023-04-21T04:20:02.747Z,4.64
2023-04-21T04:21:02.729Z,4.61
2023-04-21T04:22:02.735Z,4.61
2023-04-21T04:23:02.705Z,4.57
2023-04-21T04:24:02.704Z,4.57
2023-04-21T04:25:02.685Z,4.58
2023-04-21T04:26:02.668Z,4.57
2023-04-21T04:27:02.689Z,4.57
2023-04-21T04:28:02.644Z,4.57
2023-04-21T04:29:02.651Z,4.55
2023-04-21T04:30:02.616Z,4.57
2023-04-21T04:31:02.649Z,4.58
2023-04-21T04:32:02.609Z,4.57
2023-04-21T04:33:02.649Z,4.55
2023-04-21T04:34:02.567Z,4.54
2023-04-21T04:35:02.560Z,4.52
2023-04-21T04:36:02.559Z,4.52
2023-04-21T04:37:02.570Z,4.54
2023-04-21T04:38:02.504Z,4.54
2023-04-21T04:39:02.517Z,4.51
2023-04-21T04:40:02.500Z,4.52
2023-04-21T04:41:02.560Z,4.52
2023-04-21T04:42:02.512Z,4.51
2023-04-21T04:43:02.457Z,4.52
2023-04-21T04:44:02.440Z,4.54
2023-04-21T04:45:02.439Z,4.51
2023-04-21T04:46:02.415Z,4.52
2023-04-21T04:47:02.517Z,4.51
2023-04-21T04:48:02.404Z,4.50
2023-04-21T04:49:02.385Z,4.50
2023-04-21T04:50:02.365Z,4.46
2023-04-21T04:51:02.345Z,4.44
2023-04-21T04:52:02.378Z,4.43
2023-04-21T04:53:02.318Z,4.43
2023-04-21T04:54:02.322Z,4.39
2023-04-21T04:55:02.332Z,4.39
2023-04-21T04:56:02.273Z,4.40
2023-04-21T04:57:02.299Z,4.43
2023-04-21T04:58:02.258Z,4.43
2023-04-21T04:59:02.260Z,4.44
2023-04-21T05:00:02.227Z,4.46
2023-04-21T05:01:02.220Z,4.46
2023-04-21T05:02:02.275Z,4.47
2023-04-21T05:03:02.344Z,4.47
2023-04-21T05:04:02.363Z,4.50
2023-04-21T05:05:02.249Z,4.51
2023-04-21T05:06:02.166Z,4.52
2023-04-21T05:07:02.158Z,4.51
2023-04-21T05:08:02.206Z,4.54
2023-04-21T05:09:02.145Z,4.55
2023-04-21T05:10:02.116Z,4.57
2023-04-21T05:11:02.086Z,4.61
2023-04-21T05:12:02.079Z,4.62
2023-04-21T05:13:02.087Z,4.62
2023-04-21T05:14:02.061Z,4.69
2023-04-21T05:15:02.051Z,4.70
2023-04-21T05:16:02.086Z,4.75
2023-04-21T05:17:02.121Z,4.80
2023-04-21T05:18:02.036Z,4.83
2023-04-21T05:19:02.001Z,4.84
2023-04-21T05:20:01.966Z,4.89
2023-04-21T05:21:01.960Z,4.92
2023-04-21T05:22:01.981Z,4.96
2023-04-21T05:23:01.933Z,5.02
2023-04-21T05:24:01.933Z,5.04
2023-04-21T05:25:01.919Z,5.10
2023-04-21T05:26:04.126Z,5.13
2023-04-21T05:27:01.926Z,5.19
2023-04-21T05:28:01.876Z,5.23
2023-04-21T05:29:01.866Z,5.28
2023-04-21T05:30:01.843Z,5.35
2023-04-21T05:31:01.850Z,5.37
2023-04-21T05:32:01.993Z,5.45
2023-04-21T05:33:01.837Z,5.49
2023-04-21T05:34:01.792Z,5.53
2023-04-21T05:35:01.786Z,5.59
2023-04-21T05:36:01.767Z,5.64
2023-04-21T05:37:01.790Z,5.70
2023-04-21T05:38:01.748Z,5.75
2023-04-21T05:39:01.764Z,5.78
2023-04-21T05:40:01.713Z,5.85
2023-04-21T05:41:01.709Z,5.91
2023-04-21T05:42:01.702Z,5.98
2023-04-21T05:43:01.694Z,6.04
2023-04-21T05:44:01.684Z,6.11
2023-04-21T05:45:01.652Z,6.16
2023-04-21T05:46:01.762Z,6.25
2023-04-21T05:47:01.649Z,6.32
2023-04-21T05:48:01.681Z,6.43
2023-04-21T05:49:01.608Z,6.50
2023-04-21T05:50:01.582Z,6.58
2023-04-21T05:51:01.603Z,6.68
2023-04-21T05:52:01.559Z,6.77
2023-04-21T05:53:01.571Z,6.89
2023-04-21T05:54:01.545Z,6.98
2023-04-21T05:55:01.539Z,7.07
2023-04-21T05:56:01.517Z,7.17
2023-04-21T05:57:01.518Z,7.24
2023-04-21T05:58:01.517Z,7.37
2023-04-21T05:59:01.495Z,7.47
2023-04-21T06:00:01.481Z,7.58
2023-04-21T06:01:01.468Z,7.69
2023-04-21T06:02:01.492Z,7.78
2023-04-21T06:03:01.627Z,7.90
2023-04-21T06:04:01.639Z,7.99
2023-04-21T06:05:01.768Z,8.04
2023-04-21T06:06:01.451Z,8.12
2023-04-21T06:07:01.442Z,8.20
2023-04-21T06:08:01.378Z,8.26
2023-04-21T06:09:01.361Z,8.32
2023-04-21T06:10:01.370Z,8.37
2023-04-21T06:11:01.318Z,8.42
2023-04-21T06:12:01.333Z,8.47
2023-04-21T06:13:01.303Z,8.53
2023-04-21T06:14:01.287Z,8.57
2023-04-21T06:15:01.287Z,8.62
2023-04-21T06:16:01.303Z,8.68
2023-04-21T06:17:01.306Z,8.72
2023-04-21T06:18:01.357Z,8.73
2023-04-21T06:19:01.238Z,8.79
2023-04-21T06:20:01.231Z,8.81
2023-04-21T06:21:01.231Z,8.87
2023-04-21T06:22:01.216Z,8.93
2023-04-21T06:23:01.218Z,8.96
2023-04-21T06:24:01.154Z,9.01
2023-04-21T06:25:01.205Z,9.04
2023-04-21T06:26:01.172Z,9.10
2023-04-21T06:27:01.138Z,9.13
2023-04-21T06:28:01.136Z,9.18
2023-04-21T06:29:01.105Z,9.23
2023-04-21T06:30:01.105Z,9.25
2023-04-21T06:31:01.108Z,9.32
2023-04-21T06:32:01.119Z,9.39
2023-04-21T06:33:01.113Z,9.42
2023-04-21T06:34:01.035Z,9.46
2023-04-21T06:35:01.041Z,9.52
2023-04-21T06:36:01.005Z,9.58
2023-04-21T06:37:01.037Z,9.63
2023-04-21T06:38:01.028Z,9.68
2023-04-21T06:39:00.979Z,9.73
2023-04-21T06:40:01.015Z,9.79
2023-04-21T06:41:00.944Z,9.83
2023-04-21T06:42:00.922Z,9.89
2023-04-21T06:43:00.931Z,9.96
2023-04-21T06:44:00.913Z,10.01
2023-04-21T06:45:00.903Z,10.06
2023-04-21T06:46:00.891Z,10.12
2023-04-21T06:47:00.905Z,10.17
2023-04-21T06:48:00.866Z,10.21
2023-04-21T06:49:00.874Z,10.26
2023-04-21T06:50:00.834Z,10.33
2023-04-21T06:51:00.818Z,10.37
2023-04-21T06:52:00.810Z,10.42
2023-04-21T06:53:00.808Z,10.46
2023-04-21T06:54:00.807Z,10.47
2023-04-21T06:55:00.761Z,10.51
2023-04-21T06:56:00.748Z,10.52
2023-04-21T06:57:00.747Z,10.53
2023-04-21T06:58:00.831Z,10.56
2023-04-21T06:59:00.702Z,10.56
2023-04-21T07:00:00.704Z,10.56
2023-04-21T07:01:00.726Z,10.58
2023-04-21T07:02:00.690Z,10.60
2023-04-21T07:03:00.723Z,10.65
2023-04-21T07:04:00.699Z,10.70
2023-04-21T07:05:00.638Z,10.74
2023-04-21T07:06:00.620Z,10.80
2023-04-21T07:07:03.112Z,10.88
2023-04-21T07:08:00.629Z,10.94
2023-04-21T07:09:00.588Z,11.01
2023-04-21T07:10:00.563Z,11.10
2023-04-21T07:11:00.565Z,11.17
2023-04-21T07:12:00.538Z,11.28
2023-04-21T07:13:00.597Z,11.35
2023-04-21T07:14:00.505Z,11.44
2023-04-21T07:15:00.512Z,11.52
2023-04-21T07:16:00.499Z,11.59
2023-04-21T07:17:00.583Z,11.67
2023-04-21T07:18:00.600Z,11.71
2023-04-21T07:19:00.459Z,11.78
2023-04-21T07:20:00.460Z,11.86
2023-04-21T07:21:00.457Z,11.93
2023-04-21T07:22:00.428Z,11.96
2023-04-21T07:23:00.429Z,12.02
2023-04-21T07:24:00.412Z,12.05
2023-04-21T07:25:00.407Z,12.08
2023-04-21T07:26:00.364Z,12.12
2023-04-21T07:27:00.355Z,12.16
2023-04-21T07:28:00.390Z,12.24
2023-04-21T07:29:00.342Z,12.26
2023-04-21T07:30:00.331Z,12.29
2023-04-21T07:31:02.300Z,12.31
2023-04-21T07:32:00.286Z,12.34
2023-04-21T07:33:00.372Z,12.37
2023-04-21T07:34:00.262Z,12.39
2023-04-21T07:35:00.280Z,12.37
2023-04-21T07:36:00.236Z,12.37
2023-04-21T07:37:00.243Z,12.41
2023-04-21T07:38:00.218Z,12.41
2023-04-21T07:39:00.257Z,12.41
2023-04-21T07:40:00.223Z,12.41
2023-04-21T07:41:00.182Z,12.42
2023-04-21T07:42:00.181Z,12.44
2023-04-21T07:43:00.168Z,12.45
2023-04-21T07:44:00.141Z,12.46
2023-04-21T07:45:00.153Z,12.49
2023-04-21T07:46:00.176Z,12.51
2023-04-21T07:47:00.118Z,12.52
2023-04-21T07:48:00.206Z,12.56
2023-04-21T07:49:02.066Z,12.57
2023-04-21T07:50:00.050Z,12.62
2023-04-21T07:51:00.047Z,12.63
2023-04-21T07:52:00.029Z,12.66
2023-04-21T07:53:00.025Z,12.70
2023-04-21T07:54:00.024Z,12.71
2023-04-21T07:54:59.996Z,12.70
2023-04-21T07:55:59.971Z,12.71
2023-04-21T07:56:59.973Z,12.77
2023-04-21T07:57:59.964Z,12.81
2023-04-21T07:58:59.934Z,12.85
2023-04-21T07:59:59.966Z,12.92
2023-04-21T08:00:59.923Z,12.99
2023-04-21T08:01:59.949Z,13.04
2023-04-21T08:03:00.024Z,13.09
2023-04-21T08:04:00.056Z,13.17
2023-04-21T08:04:59.992Z,13.27
2023-04-21T08:06:00.134Z,13.36
2023-04-21T08:06:59.947Z,13.44
2023-04-21T08:07:59.829Z,13.52
2023-04-21T08:08:59.806Z,13.58
2023-04-21T08:09:59.807Z,13.63
2023-04-21T08:10:59.782Z,13.69
2023-04-21T08:11:59.760Z,13.74
2023-04-21T08:12:59.782Z,13.80
2023-04-21T08:13:59.775Z,13.84
2023-04-21T08:14:59.738Z,13.89
2023-04-21T08:15:59.739Z,13.94
2023-04-21T08:16:59.782Z,13.96
2023-04-21T08:17:59.743Z,13.98
2023-04-21T08:18:59.944Z,14.02
2023-04-21T08:20:00.015Z,14.04
2023-04-21T08:20:59.660Z,14.09
2023-04-21T08:21:59.636Z,14.13
2023-04-21T08:22:59.705Z,14.12
2023-04-21T08:23:59.625Z,14.10
2023-04-21T08:24:59.604Z,14.12
2023-04-21T08:25:59.645Z,14.19
2023-04-21T08:26:59.619Z,14.21
2023-04-21T08:27:59.582Z,14.27
2023-04-21T08:29:00.387Z,14.32
2023-04-21T08:29:59.545Z,14.35
2023-04-21T08:30:59.567Z,14.38
2023-04-21T08:31:59.753Z,14.39
2023-04-21T08:32:59.548Z,14.44
2023-04-21T08:34:02.494Z,14.49
2023-04-21T08:34:59.496Z,14.56
2023-04-21T08:36:07.380Z,14.61
2023-04-21T08:37:00.453Z,14.67
2023-04-21T08:37:59.436Z,14.67
2023-04-21T08:38:59.435Z,14.72
2023-04-21T08:39:59.426Z,14.80
2023-04-21T08:40:59.455Z,14.83
2023-04-21T08:41:59.403Z,14.86
2023-04-21T08:42:59.612Z,14.90
2023-04-21T08:43:59.369Z,14.93
2023-04-21T08:44:59.371Z,14.98
2023-04-21T08:45:59.378Z,15.01
2023-04-21T08:46:59.339Z,15.08
2023-04-21T08:47:59.349Z,15.09
2023-04-21T08:48:59.314Z,15.15
2023-04-21T08:49:59.299Z,15.17
2023-04-21T08:50:59.263Z,15.23
2023-04-21T08:51:59.285Z,15.23
2023-04-21T08:52:59.264Z,15.24
2023-04-21T08:53:59.232Z,15.31
2023-04-21T08:54:59.245Z,15.31
2023-04-21T08:56:10.018Z,15.39
2023-04-21T08:57:11.815Z,15.43
2023-04-21T08:58:00.208Z,15.51
2023-04-21T08:58:59.172Z,15.56
2023-04-21T08:59:59.153Z,15.59
2023-04-21T09:00:59.201Z,15.59
2023-04-21T09:01:59.134Z,15.60
2023-04-21T09:03:01.416Z,15.60
2023-04-21T09:03:59.373Z,15.64
2023-04-21T09:04:59.531Z,15.72
2023-04-21T09:05:59.288Z,15.76
2023-04-21T09:06:59.222Z,15.79
2023-04-21T09:07:59.077Z,15.82
2023-04-21T09:08:59.058Z,15.88
2023-04-21T09:09:59.134Z,15.94
2023-04-21T09:10:59.026Z,16.00
2023-04-21T09:11:59.062Z,16.09
2023-04-21T09:12:58.968Z,16.12
2023-04-21T09:13:59.094Z,16.18
2023-04-21T09:14:58.965Z,16.27
2023-04-21T09:15:58.944Z,16.37
2023-04-21T09:16:59.023Z,16.45
2023-04-21T09:17:58.979Z,16.53
2023-04-21T09:18:58.910Z,16.60
2023-04-21T09:19:58.895Z,16.71
2023-04-21T09:20:58.884Z,16.77
2023-04-21T09:21:58.888Z,16.83
2023-04-21T09:22:58.870Z,16.90
2023-04-21T09:23:58.835Z,16.99
2023-04-21T09:24:58.823Z,17.10
2023-04-21T09:25:58.817Z,17.18
2023-04-21T09:26:58.848Z,17.28
2023-04-21T09:27:58.805Z,17.35
2023-04-21T09:28:58.788Z,17.22
2023-04-21T09:29:58.768Z,17.10
2023-04-21T09:30:58.820Z,17.08
2023-04-21T09:31:58.758Z,17.15
2023-04-21T09:32:58.764Z,17.26
2023-04-21T09:34:00.717Z,17.36
2023-04-21T09:34:58.722Z,17.46
2023-04-21T09:35:58.712Z,17.51
2023-04-21T09:36:58.698Z,17.63
2023-04-21T09:37:58.654Z,17.74
2023-04-21T09:39:24.345Z,17.84
2023-04-21T09:40:58.624Z,18.04
2023-04-21T09:41:58.620Z,18.15
2023-04-21T09:42:58.612Z,18.25
2023-04-21T09:43:58.603Z,18.33
2023-04-21T09:45:10.880Z,18.40
2023-04-21T09:45:59.649Z,18.43
2023-04-21T09:46:58.544Z,18.47
2023-04-21T10:03:02.216Z,19.72
2023-04-21T10:04:02.228Z,19.80
2023-04-21T10:05:02.297Z,19.83
2023-04-21T10:06:02.146Z,19.79
2023-04-21T10:07:02.098Z,19.79
2023-04-21T10:08:02.051Z,19.79
2023-04-21T10:09:02.059Z,19.84
2023-04-21T10:10:02.019Z,19.86
2023-04-21T10:11:02.011Z,19.90
2023-04-21T10:12:02.014Z,19.93
2023-04-21T10:13:01.974Z,19.98
2023-04-21T10:14:01.984Z,20.05
2023-04-21T10:15:02.012Z,20.03
2023-04-21T10:16:01.942Z,19.86
2023-04-21T10:17:01.939Z,19.66
2023-04-21T10:18:01.969Z,19.39
2023-04-21T10:19:01.919Z,19.33
2023-04-21T10:20:01.917Z,19.17
2023-04-21T10:21:01.874Z,19.25
2023-04-21T10:22:01.867Z,19.35
2023-04-21T10:23:01.851Z,19.46
2023-04-21T10:24:01.860Z,19.50
2023-04-21T10:25:01.834Z,19.55
2023-04-21T10:26:01.807Z,19.60
2023-04-21T10:27:01.835Z,19.73
2023-04-21T10:28:01.797Z,19.84
2023-04-21T10:29:01.789Z,19.88
2023-04-21T10:30:01.774Z,19.93
2023-04-21T10:31:01.754Z,19.94
2023-04-21T10:32:01.897Z,19.93
2023-04-21T10:33:01.833Z,19.98
2023-04-21T10:34:01.748Z,19.95
2023-04-21T10:35:01.698Z,19.94
2023-04-21T10:36:01.703Z,19.98
2023-04-21T10:37:01.694Z,20.03
2023-04-21T10:38:01.642Z,20.03
2023-04-21T10:39:01.640Z,20.00
2023-04-21T10:40:01.667Z,20.05
2023-04-21T10:41:01.601Z,20.10
2023-04-21T10:42:01.644Z,20.18
2023-04-21T10:43:01.587Z,20.25
2023-04-21T10:44:08.592Z,20.28
2023-04-21T10:45:01.566Z,20.33
2023-04-21T10:46:01.541Z,20.39
2023-04-21T10:47:01.551Z,20.43
2023-04-21T10:48:01.596Z,20.51
2023-04-21T10:49:01.504Z,20.33
2023-04-21T10:50:01.534Z,20.21
2023-04-21T10:51:01.488Z,20.34
2023-04-21T10:52:01.497Z,20.51
2023-04-21T10:53:01.461Z,20.65
2023-04-21T10:54:01.445Z,20.71
2023-04-21T10:55:01.478Z,20.84
2023-04-21T10:56:01.428Z,20.90
2023-04-21T10:57:01.430Z,20.87
2023-04-21T10:58:01.418Z,20.91
2023-04-21T10:59:01.392Z,20.90
2023-04-21T11:00:01.384Z,20.93
2023-04-21T11:01:01.434Z,20.98
2023-04-21T11:02:01.471Z,21.09
2023-04-21T11:03:01.564Z,21.19
2023-04-21T11:04:01.488Z,21.34
2023-04-21T11:05:01.498Z,21.30
2023-04-21T11:06:01.292Z,21.29
2023-04-21T11:07:01.294Z,21.32
2023-04-21T11:08:01.293Z,21.38
2023-04-21T11:09:01.251Z,21.42
2023-04-21T11:10:01.263Z,21.50
2023-04-21T11:11:01.252Z,21.56
2023-04-21T11:12:01.207Z,21.59
2023-04-21T11:13:01.204Z,21.61
2023-04-21T11:14:01.195Z,21.66
2023-04-21T11:15:01.202Z,21.72
2023-04-21T11:16:01.161Z,21.67
2023-04-21T11:17:01.281Z,21.50
2023-04-21T11:18:01.201Z,21.57
2023-04-21T11:19:01.154Z,21.71
2023-04-21T11:20:01.134Z,21.82
2023-04-21T11:21:01.117Z,21.88
2023-04-21T11:22:08.077Z,21.90
2023-04-21T11:23:01.061Z,21.94
2023-04-21T11:24:01.058Z,22.06
2023-04-21T11:25:01.096Z,22.17
2023-04-21T11:26:01.015Z,22.22
2023-04-21T11:27:08.522Z,22.23
2023-04-21T11:28:00.990Z,22.35
2023-04-21T11:29:07.992Z,22.47
2023-04-21T11:30:07.983Z,22.49
2023-04-21T11:31:08.500Z,22.50
2023-04-21T11:32:07.954Z,22.44
2023-04-21T11:33:00.983Z,22.49
2023-04-21T11:34:00.928Z,22.54
2023-04-21T11:35:00.926Z,22.62
2023-04-21T11:36:00.886Z,22.64
2023-04-21T11:37:00.892Z,22.67
2023-04-21T11:38:00.908Z,22.74
2023-04-21T11:39:00.866Z,22.67
2023-04-21T11:40:00.970Z,22.64
2023-04-21T11:41:00.855Z,22.56
2023-04-21T11:42:00.810Z,22.59
2023-04-21T11:43:07.811Z,22.65
2023-04-21T11:44:00.823Z,22.78
2023-04-21T11:45:00.876Z,22.89
2023-04-21T11:46:00.806Z,22.97
2023-04-21T11:47:00.772Z,23.01
2023-04-21T11:48:00.812Z,23.02
2023-04-21T11:49:00.774Z,23.05
2023-04-21T11:50:00.856Z,23.01
2023-04-21T11:51:00.732Z,23.08
2023-04-21T11:52:00.710Z,23.12
2023-04-21T11:53:00.764Z,23.09
2023-04-21T11:54:00.779Z,23.20
2023-04-21T11:55:00.708Z,23.26
2023-04-21T11:56:00.660Z,23.32
2023-04-21T11:57:02.544Z,23.35
2023-04-21T11:58:00.624Z,23.38
2023-04-21T11:59:00.630Z,23.42
2023-04-21T12:00:00.627Z,23.43
2023-04-21T12:01:00.602Z,23.43
2023-04-21T12:02:00.691Z,23.46
2023-04-21T12:03:00.819Z,23.47
2023-04-21T12:04:00.677Z,23.49
2023-04-21T12:05:00.757Z,23.52
2023-04-21T12:06:00.624Z,23.55
2023-04-21T12:07:00.543Z,23.32
2023-04-21T12:08:00.512Z,23.14
2023-04-21T12:09:00.485Z,23.08
2023-04-21T12:10:00.452Z,23.17
2023-04-21T12:11:00.457Z,23.26
2023-04-21T12:12:00.480Z,23.31
2023-04-21T12:13:00.447Z,23.40
2023-04-21T12:14:00.439Z,23.57
2023-04-21T12:15:00.402Z,23.61
2023-04-21T12:16:00.422Z,23.61
2023-04-21T12:17:00.417Z,23.67
2023-04-21T12:18:00.425Z,23.75
2023-04-21T12:19:00.346Z,23.85
2023-04-21T12:20:00.328Z,24.00
2023-04-21T12:21:00.338Z,24.13
2023-04-21T12:22:00.339Z,24.27
2023-04-21T12:23:00.334Z,24.17
2023-04-21T12:24:00.283Z,24.24
2023-04-21T12:25:00.281Z,24.23
2023-04-21T12:26:00.279Z,24.34
2023-04-21T12:27:00.284Z,24.47
2023-04-21T12:28:00.256Z,24.67
2023-04-21T12:29:00.245Z,24.69
2023-04-21T12:30:00.227Z,24.68
2023-04-21T12:31:00.200Z,24.71
2023-04-21T12:32:00.324Z,24.76
2023-04-21T12:33:00.451Z,24.71
2023-04-21T12:34:00.310Z,24.76
2023-04-21T12:35:00.164Z,24.77
2023-04-21T12:36:00.199Z,24.87
2023-04-21T12:37:00.178Z,24.95
2023-04-21T12:38:00.129Z,25.12
2023-04-21T12:39:00.165Z,25.07
2023-04-21T12:40:00.147Z,24.97
2023-04-21T12:41:00.142Z,24.98
2023-04-21T12:42:00.061Z,25.12
2023-04-21T12:43:00.051Z,25.10
2023-04-21T12:44:00.037Z,25.16
2023-04-21T12:45:00.014Z,25.07
2023-04-21T12:46:00.061Z,25.20
2023-04-21T12:47:00.014Z,25.47
2023-04-21T12:48:00.067Z,25.62
2023-04-21T12:48:59.970Z,25.50
2023-04-21T12:49:59.950Z,25.68
2023-04-21T12:50:59.994Z,25.77
2023-04-21T12:51:59.949Z,25.87
2023-04-21T12:52:59.909Z,25.84
2023-04-21T12:53:59.909Z,25.90
2023-04-21T12:54:59.899Z,25.74
2023-04-21T12:56:04.849Z,25.79
2023-04-21T12:57:00.881Z,25.94
2023-04-21T12:57:59.877Z,26.06
2023-04-21T12:58:59.848Z,26.21
2023-04-21T12:59:59.845Z,26.29
2023-04-21T13:00:59.933Z,26.31
2023-04-21T13:01:59.882Z,26.28
2023-04-21T13:02:59.862Z,26.37
2023-04-21T13:03:59.971Z,26.49
2023-04-21T13:04:59.778Z,26.55
2023-04-21T13:05:59.768Z,26.35
2023-04-21T13:06:59.762Z,26.32
2023-04-21T13:07:59.742Z,26.29
2023-04-21T13:08:59.718Z,25.87
2023-04-21T13:09:59.706Z,25.94
2023-04-21T13:10:59.691Z,26.06
2023-04-21T13:11:59.695Z,26.39
2023-04-21T13:12:59.667Z,26.79
2023-04-21T13:13:59.672Z,27.20
2023-04-21T13:14:59.639Z,27.54
2023-04-21T13:15:59.644Z,27.95
2023-04-21T13:16:59.700Z,28.23
2023-04-21T13:17:59.599Z,28.48
2023-04-21T13:18:59.607Z,28.87
2023-04-21T13:19:59.656Z,29.33
2023-04-21T13:20:59.572Z,29.78
2023-04-21T13:21:59.572Z,29.47
2023-04-21T13:22:59.539Z,28.87
2023-04-21T13:23:59.526Z,28.43
2023-04-21T13:24:59.502Z,28.90
2023-04-21T13:25:59.519Z,29.22
2023-04-21T13:26:59.535Z,28.93
2023-04-21T13:27:59.481Z,29.26
2023-04-21T13:28:59.452Z,29.75
2023-04-21T13:29:59.471Z,30.12
2023-04-21T13:30:59.470Z,30.40
2023-04-21T13:31:59.445Z,30.84
2023-04-21T13:32:59.482Z,30.64
2023-04-21T13:33:59.407Z,30.31